sensor_id;sensor_type;location;lat;lon;timestamp;P1;durP1;ratioP1;P2;durP2;ratioP2
73023;SDS011;72676;47.526;8.538;2023-09-08T00:02:19;19.07;;;11.00;;
73023;SDS011;72676;47.526;8.538;2023-09-08T00:04:45;24.67;;;11.17;;
73023;SDS011;72676;47.526;8.538;2023-09-08T00:07:11;16.00;;;11.10;;
73023;SDS011;72676;47.526;8.538;2023-09-08T00:09:38;18.73;;;11.30;;
73023;SDS011;72676;47.526;8.538;2023-09-08T00:12:04;21.23;;;11.10;;
73023;SDS011;72676;47.526;8.538;2023-09-08T00:14:31;18.73;;;11.53;;
73023;SDS011;72676;47.526;8.538;2023-09-08T00:16:57;12.00;;;9.73;;
73023;SDS011;72676;47.526;8.538;2023-09-08T00:19:24;14.03;;;10.13;;
73023;SDS011;72676;47.526;8.538;2023-09-08T00:21:50;14.80;;;11.00;;
73023;SDS011;72676;47.526;8.538;2023-09-08T00:24:17;17.43;;;10.20;;
73023;SDS011;72676;47.526;8.538;2023-09-08T00:26:44;30.47;;;12.10;;
73023;SDS011;72676;47.526;8.538;2023-09-08T00:29:11;17.30;;;10.20;;
73023;SDS011;72676;47.526;8.538;2023-09-08T00:31:38;17.57;;;10.60;;
73023;SDS011;72676;47.526;8.538;2023-09-08T00:34:04;20.50;;;11.90;;
73023;SDS011;72676;47.526;8.538;2023-09-08T00:36:31;14.50;;;11.00;;
73023;SDS011;72676;47.526;8.538;2023-09-08T00:38:58;17.70;;;11.30;;
73023;SDS011;72676;47.526;8.538;2023-09-08T00:41:24;16.03;;;11.30;;
73023;SDS011;72676;47.526;8.538;2023-09-08T00:43:51;21.40;;;12.20;;
73023;SDS011;72676;47.526;8.538;2023-09-08T00:46:17;15.93;;;11.27;;
73023;SDS011;72676;47.526;8.538;2023-09-08T00:48:44;14.33;;;10.93;;
73023;SDS011;72676;47.526;8.538;2023-09-08T00:51:10;16.13;;;11.17;;
73023;SDS011;72676;47.526;8.538;2023-09-08T00:53:37;14.03;;;11.00;;
73023;SDS011;72676;47.526;8.538;2023-09-08T00:56:04;16.13;;;11.03;;
73023;SDS011;72676;47.526;8.538;2023-09-08T00:58:30;20.33;;;11.77;;
73023;SDS011;72676;47.526;8.538;2023-09-08T01:00:57;16.87;;;11.30;;
73023;SDS011;72676;47.526;8.538;2023-09-08T01:03:24;17.40;;;11.57;;
73023;SDS011;72676;47.526;8.538;2023-09-08T01:05:51;16.20;;;11.80;;
73023;SDS011;72676;47.526;8.538;2023-09-08T01:08:18;16.43;;;10.53;;
73023;SDS011;72676;47.526;8.538;2023-09-08T01:10:45;21.50;;;11.87;;
73023;SDS011;72676;47.526;8.538;2023-09-08T01:13:12;15.53;;;11.00;;
73023;SDS011;72676;47.526;8.538;2023-09-08T01:15:38;15.97;;;11.50;;
73023;SDS011;72676;47.526;8.538;2023-09-08T01:18:05;19.43;;;12.00;;
73023;SDS011;72676;47.526;8.538;2023-09-08T01:20:41;22.40;;;12.07;;
73023;SDS011;72676;47.526;8.538;2023-09-08T01:24:05;14.13;;;11.10;;
73023;SDS011;72676;47.526;8.538;2023-09-08T01:26:20;16.93;;;11.23;;
73023;SDS011;72676;47.526;8.538;2023-09-08T01:28:49;18.87;;;11.83;;
73023;SDS011;72676;47.526;8.538;2023-09-08T01:31:16;16.93;;;11.17;;
73023;SDS011;72676;47.526;8.538;2023-09-08T01:33:44;15.20;;;10.97;;
73023;SDS011;72676;47.526;8.538;2023-09-08T01:36:11;20.10;;;12.17;;
73023;SDS011;72676;47.526;8.538;2023-09-08T01:38:39;16.80;;;12.20;;
73023;SDS011;72676;47.526;8.538;2023-09-08T01:41:05;17.03;;;12.60;;
73023;SDS011;72676;47.526;8.538;2023-09-08T01:43:32;17.73;;;12.23;;
73023;SDS011;72676;47.526;8.538;2023-09-08T01:46:00;19.73;;;11.63;;
73023;SDS011;72676;47.526;8.538;2023-09-08T01:48:27;16.60;;;11.37;;
73023;SDS011;72676;47.526;8.538;2023-09-08T01:50:53;20.93;;;11.80;;
73023;SDS011;72676;47.526;8.538;2023-09-08T01:53:20;16.30;;;10.50;;
73023;SDS011;72676;47.526;8.538;2023-09-08T01:55:46;19.03;;;11.10;;
73023;SDS011;72676;47.526;8.538;2023-09-08T01:58:12;16.57;;;11.10;;
73023;SDS011;72676;47.526;8.538;2023-09-08T02:00:39;20.63;;;10.47;;
73023;SDS011;72676;47.526;8.538;2023-09-08T02:03:05;20.80;;;11.10;;
73023;SDS011;72676;47.526;8.538;2023-09-08T02:05:32;17.23;;;11.20;;
73023;SDS011;72676;47.526;8.538;2023-09-08T02:08:00;16.90;;;11.33;;
73023;SDS011;72676;47.526;8.538;2023-09-08T02:10:26;16.00;;;11.30;;
73023;SDS011;72676;47.526;8.538;2023-09-08T02:12:53;13.77;;;11.07;;
73023;SDS011;72676;47.526;8.538;2023-09-08T02:15:19;16.03;;;11.67;;
73023;SDS011;72676;47.526;8.538;2023-09-08T02:17:46;18.27;;;11.40;;
73023;SDS011;72676;47.526;8.538;2023-09-08T02:20:12;16.23;;;11.50;;
73023;SDS011;72676;47.526;8.538;2023-09-08T02:22:38;21.87;;;12.40;;
73023;SDS011;72676;47.526;8.538;2023-09-08T02:25:05;15.40;;;11.77;;
73023;SDS011;72676;47.526;8.538;2023-09-08T02:27:32;23.53;;;12.03;;
73023;SDS011;72676;47.526;8.538;2023-09-08T02:29:58;17.00;;;12.20;;
73023;SDS011;72676;47.526;8.538;2023-09-08T02:32:25;17.83;;;11.50;;
73023;SDS011;72676;47.526;8.538;2023-09-08T02:34:51;16.57;;;12.53;;
73023;SDS011;72676;47.526;8.538;2023-09-08T02:37:18;18.03;;;12.03;;
73023;SDS011;72676;47.526;8.538;2023-09-08T02:39:45;27.93;;;11.77;;
73023;SDS011;72676;47.526;8.538;2023-09-08T02:42:11;21.77;;;13.00;;
73023;SDS011;72676;47.526;8.538;2023-09-08T02:44:38;22.33;;;12.63;;
73023;SDS011;72676;47.526;8.538;2023-09-08T02:47:04;16.80;;;11.60;;
73023;SDS011;72676;47.526;8.538;2023-09-08T02:49:32;21.13;;;12.70;;
73023;SDS011;72676;47.526;8.538;2023-09-08T02:51:59;22.50;;;13.07;;
73023;SDS011;72676;47.526;8.538;2023-09-08T02:54:25;22.60;;;12.77;;
73023;SDS011;72676;47.526;8.538;2023-09-08T02:56:51;19.97;;;12.40;;
73023;SDS011;72676;47.526;8.538;2023-09-08T02:59:18;21.60;;;13.17;;
73023;SDS011;72676;47.526;8.538;2023-09-08T03:01:45;18.93;;;12.27;;
73023;SDS011;72676;47.526;8.538;2023-09-08T03:04:11;25.73;;;13.60;;
73023;SDS011;72676;47.526;8.538;2023-09-08T03:06:38;19.17;;;12.27;;
73023;SDS011;72676;47.526;8.538;2023-09-08T03:09:04;17.93;;;12.73;;
73023;SDS011;72676;47.526;8.538;2023-09-08T03:11:31;23.13;;;13.70;;
73023;SDS011;72676;47.526;8.538;2023-09-08T03:13:57;18.47;;;13.00;;
73023;SDS011;72676;47.526;8.538;2023-09-08T03:16:24;18.80;;;12.60;;
73023;SDS011;72676;47.526;8.538;2023-09-08T03:18:50;19.80;;;13.80;;
73023;SDS011;72676;47.526;8.538;2023-09-08T03:21:16;20.10;;;13.50;;
73023;SDS011;72676;47.526;8.538;2023-09-08T03:23:43;18.13;;;13.70;;
73023;SDS011;72676;47.526;8.538;2023-09-08T03:26:10;19.83;;;12.20;;
73023;SDS011;72676;47.526;8.538;2023-09-08T03:28:37;18.67;;;12.40;;
73023;SDS011;72676;47.526;8.538;2023-09-08T03:31:05;22.80;;;12.90;;
73023;SDS011;72676;47.526;8.538;2023-09-08T03:33:31;17.90;;;13.07;;
73023;SDS011;72676;47.526;8.538;2023-09-08T03:35:58;15.33;;;12.20;;
73023;SDS011;72676;47.526;8.538;2023-09-08T03:38:25;21.27;;;13.37;;
73023;SDS011;72676;47.526;8.538;2023-09-08T03:40:51;18.43;;;12.63;;
73023;SDS011;72676;47.526;8.538;2023-09-08T03:43:17;20.13;;;12.70;;
73023;SDS011;72676;47.526;8.538;2023-09-08T03:45:44;22.60;;;13.00;;
73023;SDS011;72676;47.526;8.538;2023-09-08T03:48:11;25.00;;;13.57;;
73023;SDS011;72676;47.526;8.538;2023-09-08T03:50:37;25.30;;;12.97;;
73023;SDS011;72676;47.526;8.538;2023-09-08T03:53:04;18.77;;;12.13;;
73023;SDS011;72676;47.526;8.538;2023-09-08T03:55:30;20.20;;;12.47;;
73023;SDS011;72676;47.526;8.538;2023-09-08T03:57:57;17.07;;;12.33;;
73023;SDS011;72676;47.526;8.538;2023-09-08T04:00:23;18.43;;;12.60;;
73023;SDS011;72676;47.526;8.538;2023-09-08T04:02:50;19.17;;;12.33;;
73023;SDS011;72676;47.526;8.538;2023-09-08T04:05:17;21.23;;;13.60;;
73023;SDS011;72676;47.526;8.538;2023-09-08T04:07:44;19.70;;;13.47;;
73023;SDS011;72676;47.526;8.538;2023-09-08T04:10:11;21.70;;;12.70;;
73023;SDS011;72676;47.526;8.538;2023-09-08T04:12:41;19.50;;;13.00;;
73023;SDS011;72676;47.526;8.538;2023-09-08T04:15:08;23.10;;;12.30;;
73023;SDS011;72676;47.526;8.538;2023-09-08T04:17:35;17.27;;;12.40;;
73023;SDS011;72676;47.526;8.538;2023-09-08T04:20:04;16.83;;;11.00;;
73023;SDS011;72676;47.526;8.538;2023-09-08T04:22:31;14.87;;;10.93;;
73023;SDS011;72676;47.526;8.538;2023-09-08T04:24:58;17.13;;;10.40;;
73023;SDS011;72676;47.526;8.538;2023-09-08T04:27:25;17.57;;;11.63;;
73023;SDS011;72676;47.526;8.538;2023-09-08T04:29:51;21.50;;;13.80;;
73023;SDS011;72676;47.526;8.538;2023-09-08T04:32:18;17.20;;;13.00;;
73023;SDS011;72676;47.526;8.538;2023-09-08T04:34:44;18.33;;;13.00;;
73023;SDS011;72676;47.526;8.538;2023-09-08T04:37:11;20.57;;;13.20;;
73023;SDS011;72676;47.526;8.538;2023-09-08T04:39:37;23.53;;;13.20;;
73023;SDS011;72676;47.526;8.538;2023-09-08T04:42:04;24.23;;;13.93;;
73023;SDS011;72676;47.526;8.538;2023-09-08T04:44:30;22.90;;;13.60;;
73023;SDS011;72676;47.526;8.538;2023-09-08T04:46:57;27.37;;;13.20;;
73023;SDS011;72676;47.526;8.538;2023-09-08T04:49:23;20.43;;;12.70;;
73023;SDS011;72676;47.526;8.538;2023-09-08T04:51:50;24.17;;;14.27;;
73023;SDS011;72676;47.526;8.538;2023-09-08T04:54:16;18.70;;;13.70;;
73023;SDS011;72676;47.526;8.538;2023-09-08T04:56:43;21.80;;;13.37;;
73023;SDS011;72676;47.526;8.538;2023-09-08T04:59:09;21.13;;;13.60;;
73023;SDS011;72676;47.526;8.538;2023-09-08T05:01:35;21.47;;;14.20;;
73023;SDS011;72676;47.526;8.538;2023-09-08T05:04:03;21.57;;;12.80;;
73023;SDS011;72676;47.526;8.538;2023-09-08T05:06:30;23.17;;;13.00;;
73023;SDS011;72676;47.526;8.538;2023-09-08T05:08:58;18.77;;;12.07;;
73023;SDS011;72676;47.526;8.538;2023-09-08T05:11:26;20.43;;;13.80;;
73023;SDS011;72676;47.526;8.538;2023-09-08T05:13:53;21.90;;;14.27;;
73023;SDS011;72676;47.526;8.538;2023-09-08T05:16:20;17.20;;;13.17;;
73023;SDS011;72676;47.526;8.538;2023-09-08T05:19:05;20.30;;;13.07;;
73023;SDS011;72676;47.526;8.538;2023-09-08T05:21:32;28.43;;;14.60;;
73023;SDS011;72676;47.526;8.538;2023-09-08T05:24:00;20.60;;;14.57;;
73023;SDS011;72676;47.526;8.538;2023-09-08T05:26:27;22.53;;;13.57;;
73023;SDS011;72676;47.526;8.538;2023-09-08T05:28:53;19.20;;;12.60;;
73023;SDS011;72676;47.526;8.538;2023-09-08T05:31:20;21.20;;;13.50;;
73023;SDS011;72676;47.526;8.538;2023-09-08T05:33:46;24.43;;;13.57;;
73023;SDS011;72676;47.526;8.538;2023-09-08T05:36:12;26.70;;;13.63;;
73023;SDS011;72676;47.526;8.538;2023-09-08T05:38:41;20.20;;;13.20;;
73023;SDS011;72676;47.526;8.538;2023-09-08T05:41:07;19.17;;;13.13;;
73023;SDS011;72676;47.526;8.538;2023-09-08T05:43:34;18.07;;;12.67;;
73023;SDS011;72676;47.526;8.538;2023-09-08T05:46:01;23.87;;;13.70;;
73023;SDS011;72676;47.526;8.538;2023-09-08T05:48:27;20.30;;;14.07;;
73023;SDS011;72676;47.526;8.538;2023-09-08T05:50:54;18.33;;;13.37;;
73023;SDS011;72676;47.526;8.538;2023-09-08T05:53:20;19.93;;;13.20;;
73023;SDS011;72676;47.526;8.538;2023-09-08T05:55:47;20.90;;;13.47;;
73023;SDS011;72676;47.526;8.538;2023-09-08T05:58:13;23.60;;;12.77;;
73023;SDS011;72676;47.526;8.538;2023-09-08T06:00:40;16.53;;;12.50;;
73023;SDS011;72676;47.526;8.538;2023-09-08T06:03:07;17.80;;;13.00;;
73023;SDS011;72676;47.526;8.538;2023-09-08T06:05:34;19.50;;;13.60;;
73023;SDS011;72676;47.526;8.538;2023-09-08T06:08:00;21.00;;;12.93;;
73023;SDS011;72676;47.526;8.538;2023-09-08T06:10:33;19.87;;;13.10;;
73023;SDS011;72676;47.526;8.538;2023-09-08T06:12:59;22.00;;;14.27;;
73023;SDS011;72676;47.526;8.538;2023-09-08T06:15:26;17.37;;;13.00;;
73023;SDS011;72676;47.526;8.538;2023-09-08T06:17:52;20.00;;;12.73;;
73023;SDS011;72676;47.526;8.538;2023-09-08T06:20:19;23.53;;;13.73;;
73023;SDS011;72676;47.526;8.538;2023-09-08T06:22:45;23.87;;;14.20;;
73023;SDS011;72676;47.526;8.538;2023-09-08T06:25:12;22.70;;;13.80;;
73023;SDS011;72676;47.526;8.538;2023-09-08T06:27:39;27.90;;;15.87;;
73023;SDS011;72676;47.526;8.538;2023-09-08T06:30:05;26.00;;;14.50;;
73023;SDS011;72676;47.526;8.538;2023-09-08T06:32:32;24.37;;;13.17;;
73023;SDS011;72676;47.526;8.538;2023-09-08T06:34:59;22.50;;;14.77;;
73023;SDS011;72676;47.526;8.538;2023-09-08T06:37:25;21.77;;;14.40;;
73023;SDS011;72676;47.526;8.538;2023-09-08T06:39:54;29.73;;;15.20;;
73023;SDS011;72676;47.526;8.538;2023-09-08T06:42:21;20.97;;;14.10;;
73023;SDS011;72676;47.526;8.538;2023-09-08T06:44:47;30.03;;;15.90;;
73023;SDS011;72676;47.526;8.538;2023-09-08T06:47:13;27.37;;;15.77;;
73023;SDS011;72676;47.526;8.538;2023-09-08T06:49:40;26.33;;;15.23;;
73023;SDS011;72676;47.526;8.538;2023-09-08T06:52:07;23.60;;;15.30;;
73023;SDS011;72676;47.526;8.538;2023-09-08T06:54:34;26.47;;;14.23;;
73023;SDS011;72676;47.526;8.538;2023-09-08T06:57:00;26.53;;;15.93;;
73023;SDS011;72676;47.526;8.538;2023-09-08T06:59:26;23.03;;;15.40;;
73023;SDS011;72676;47.526;8.538;2023-09-08T07:01:54;25.80;;;15.00;;
73023;SDS011;72676;47.526;8.538;2023-09-08T07:04:21;26.10;;;15.07;;
73023;SDS011;72676;47.526;8.538;2023-09-08T07:06:48;28.40;;;16.30;;
73023;SDS011;72676;47.526;8.538;2023-09-08T07:09:16;26.77;;;16.17;;
73023;SDS011;72676;47.526;8.538;2023-09-08T07:11:42;31.50;;;16.23;;
73023;SDS011;72676;47.526;8.538;2023-09-08T07:14:09;24.20;;;14.60;;
73023;SDS011;72676;47.526;8.538;2023-09-08T07:16:35;23.97;;;15.50;;
73023;SDS011;72676;47.526;8.538;2023-09-08T07:19:03;23.70;;;15.57;;
73023;SDS011;72676;47.526;8.538;2023-09-08T07:21:29;24.43;;;15.27;;
73023;SDS011;72676;47.526;8.538;2023-09-08T07:23:56;23.90;;;15.37;;
73023;SDS011;72676;47.526;8.538;2023-09-08T07:26:22;31.53;;;15.30;;
73023;SDS011;72676;47.526;8.538;2023-09-08T07:28:49;20.30;;;14.40;;
73023;SDS011;72676;47.526;8.538;2023-09-08T07:31:16;25.77;;;16.80;;
73023;SDS011;72676;47.526;8.538;2023-09-08T07:33:42;25.67;;;16.23;;
73023;SDS011;72676;47.526;8.538;2023-09-08T07:36:09;28.60;;;16.07;;
73023;SDS011;72676;47.526;8.538;2023-09-08T07:38:35;27.13;;;17.50;;
73023;SDS011;72676;47.526;8.538;2023-09-08T07:41:02;32.27;;;16.57;;
73023;SDS011;72676;47.526;8.538;2023-09-08T07:43:29;27.07;;;16.30;;
73023;SDS011;72676;47.526;8.538;2023-09-08T07:45:56;27.60;;;17.23;;
73023;SDS011;72676;47.526;8.538;2023-09-08T07:48:22;23.73;;;15.27;;
73023;SDS011;72676;47.526;8.538;2023-09-08T07:50:49;22.73;;;14.50;;
73023;SDS011;72676;47.526;8.538;2023-09-08T07:53:15;20.37;;;14.47;;
73023;SDS011;72676;47.526;8.538;2023-09-08T07:55:42;22.23;;;14.10;;
73023;SDS011;72676;47.526;8.538;2023-09-08T07:58:08;27.00;;;14.13;;
73023;SDS011;72676;47.526;8.538;2023-09-08T08:00:35;22.30;;;13.63;;
73023;SDS011;72676;47.526;8.538;2023-09-08T08:03:01;24.93;;;13.80;;
73023;SDS011;72676;47.526;8.538;2023-09-08T08:05:28;26.10;;;15.97;;
73023;SDS011;72676;47.526;8.538;2023-09-08T08:07:55;24.50;;;14.27;;
73023;SDS011;72676;47.526;8.538;2023-09-08T08:10:21;24.00;;;13.17;;
73023;SDS011;72676;47.526;8.538;2023-09-08T08:12:48;23.50;;;13.10;;
73023;SDS011;72676;47.526;8.538;2023-09-08T08:15:15;18.43;;;12.47;;
73023;SDS011;72676;47.526;8.538;2023-09-08T08:17:41;21.00;;;14.00;;
73023;SDS011;72676;47.526;8.538;2023-09-08T08:20:10;17.90;;;11.60;;
73023;SDS011;72676;47.526;8.538;2023-09-08T08:22:43;31.87;;;14.43;;
73023;SDS011;72676;47.526;8.538;2023-09-08T08:25:11;19.07;;;13.43;;
73023;SDS011;72676;47.526;8.538;2023-09-08T08:27:42;29.87;;;13.50;;
73023;SDS011;72676;47.526;8.538;2023-09-08T08:30:09;22.23;;;15.00;;
73023;SDS011;72676;47.526;8.538;2023-09-08T08:32:37;20.57;;;14.07;;
73023;SDS011;72676;47.526;8.538;2023-09-08T08:35:04;23.97;;;14.07;;
73023;SDS011;72676;47.526;8.538;2023-09-08T08:37:31;22.50;;;14.30;;
73023;SDS011;72676;47.526;8.538;2023-09-08T08:39:57;29.77;;;16.13;;
73023;SDS011;72676;47.526;8.538;2023-09-08T08:42:24;22.27;;;13.53;;
73023;SDS011;72676;47.526;8.538;2023-09-08T08:44:58;23.07;;;14.57;;
73023;SDS011;72676;47.526;8.538;2023-09-08T08:47:25;23.27;;;14.30;;
73023;SDS011;72676;47.526;8.538;2023-09-08T08:49:55;25.47;;;15.70;;
73023;SDS011;72676;47.526;8.538;2023-09-08T08:52:22;24.93;;;15.73;;
73023;SDS011;72676;47.526;8.538;2023-09-08T08:54:49;23.03;;;14.60;;
73023;SDS011;72676;47.526;8.538;2023-09-08T08:57:15;20.43;;;14.33;;
73023;SDS011;72676;47.526;8.538;2023-09-08T08:59:42;28.07;;;14.50;;
73023;SDS011;72676;47.526;8.538;2023-09-08T09:02:11;27.10;;;16.27;;
73023;SDS011;72676;47.526;8.538;2023-09-08T09:04:38;27.23;;;15.27;;
73023;SDS011;72676;47.526;8.538;2023-09-08T09:07:05;23.87;;;14.57;;
73023;SDS011;72676;47.526;8.538;2023-09-08T09:09:33;29.60;;;14.97;;
73023;SDS011;72676;47.526;8.538;2023-09-08T09:11:59;25.10;;;13.33;;
73023;SDS011;72676;47.526;8.538;2023-09-08T09:14:31;25.07;;;14.20;;
73023;SDS011;72676;47.526;8.538;2023-09-08T09:16:59;27.83;;;13.80;;
73023;SDS011;72676;47.526;8.538;2023-09-08T09:19:27;25.03;;;14.47;;
73023;SDS011;72676;47.526;8.538;2023-09-08T09:21:55;21.80;;;14.40;;
73023;SDS011;72676;47.526;8.538;2023-09-08T09:24:29;19.10;;;13.67;;
73023;SDS011;72676;47.526;8.538;2023-09-08T09:27:00;20.63;;;14.13;;
73023;SDS011;72676;47.526;8.538;2023-09-08T09:29:27;29.33;;;16.40;;
73023;SDS011;72676;47.526;8.538;2023-09-08T09:31:58;24.83;;;13.70;;
73023;SDS011;72676;47.526;8.538;2023-09-08T09:34:32;22.10;;;13.23;;
73023;SDS011;72676;47.526;8.538;2023-09-08T09:36:59;22.23;;;14.30;;
73023;SDS011;72676;47.526;8.538;2023-09-08T09:39:26;21.20;;;14.10;;
73023;SDS011;72676;47.526;8.538;2023-09-08T09:41:53;18.80;;;14.60;;
73023;SDS011;72676;47.526;8.538;2023-09-08T09:44:21;19.77;;;12.97;;
73023;SDS011;72676;47.526;8.538;2023-09-08T09:46:48;23.50;;;12.90;;
73023;SDS011;72676;47.526;8.538;2023-09-08T09:49:15;19.93;;;14.17;;
73023;SDS011;72676;47.526;8.538;2023-09-08T09:51:44;19.97;;;14.20;;
73023;SDS011;72676;47.526;8.538;2023-09-08T09:54:11;29.90;;;17.37;;
73023;SDS011;72676;47.526;8.538;2023-09-08T09:56:38;25.10;;;16.70;;
73023;SDS011;72676;47.526;8.538;2023-09-08T09:59:09;24.73;;;15.70;;
73023;SDS011;72676;47.526;8.538;2023-09-08T10:01:39;22.10;;;15.97;;
73023;SDS011;72676;47.526;8.538;2023-09-08T10:04:07;21.17;;;15.80;;
73023;SDS011;72676;47.526;8.538;2023-09-08T10:06:34;20.43;;;15.07;;
73023;SDS011;72676;47.526;8.538;2023-09-08T10:09:02;23.73;;;15.70;;
73023;SDS011;72676;47.526;8.538;2023-09-08T10:11:37;17.03;;;13.50;;
73023;SDS011;72676;47.526;8.538;2023-09-08T10:14:11;25.53;;;14.83;;
73023;SDS011;72676;47.526;8.538;2023-09-08T10:16:39;27.27;;;14.60;;
73023;SDS011;72676;47.526;8.538;2023-09-08T10:19:10;20.70;;;13.27;;
73023;SDS011;72676;47.526;8.538;2023-09-08T10:21:40;19.00;;;14.40;;
73023;SDS011;72676;47.526;8.538;2023-09-08T10:24:14;19.80;;;15.53;;
73023;SDS011;72676;47.526;8.538;2023-09-08T10:26:43;19.50;;;14.13;;
73023;SDS011;72676;47.526;8.538;2023-09-08T10:29:13;26.63;;;15.87;;
73023;SDS011;72676;47.526;8.538;2023-09-08T10:31:39;17.30;;;14.40;;
73023;SDS011;72676;47.526;8.538;2023-09-08T10:34:06;18.77;;;14.27;;
73023;SDS011;72676;47.526;8.538;2023-09-08T10:36:34;27.50;;;15.40;;
73023;SDS011;72676;47.526;8.538;2023-09-08T10:44:43;18.43;;;13.27;;
73023;SDS011;72676;47.526;8.538;2023-09-08T10:47:10;18.30;;;14.00;;
73023;SDS011;72676;47.526;8.538;2023-09-08T10:49:39;23.73;;;13.30;;
73023;SDS011;72676;47.526;8.538;2023-09-08T10:52:10;19.27;;;13.43;;
73023;SDS011;72676;47.526;8.538;2023-09-08T10:54:43;16.10;;;12.53;;
73023;SDS011;72676;47.526;8.538;2023-09-08T10:57:15;24.00;;;13.30;;
73023;SDS011;72676;47.526;8.538;2023-09-08T10:59:52;16.10;;;12.10;;
73023;SDS011;72676;47.526;8.538;2023-09-08T11:02:33;18.57;;;12.57;;
73023;SDS011;72676;47.526;8.538;2023-09-08T11:05:00;16.70;;;12.30;;
73023;SDS011;72676;47.526;8.538;2023-09-08T11:07:27;22.37;;;12.77;;
73023;SDS011;72676;47.526;8.538;2023-09-08T11:09:53;17.10;;;12.47;;
73023;SDS011;72676;47.526;8.538;2023-09-08T11:12:20;15.20;;;11.37;;
73023;SDS011;72676;47.526;8.538;2023-09-08T11:14:49;20.63;;;11.27;;
73023;SDS011;72676;47.526;8.538;2023-09-08T11:17:15;12.60;;;9.43;;
73023;SDS011;72676;47.526;8.538;2023-09-08T11:19:43;10.67;;;9.03;;
73023;SDS011;72676;47.526;8.538;2023-09-08T11:22:11;16.10;;;9.83;;
73023;SDS011;72676;47.526;8.538;2023-09-08T11:24:37;14.50;;;9.47;;
73023;SDS011;72676;47.526;8.538;2023-09-08T11:27:05;17.47;;;8.63;;
73023;SDS011;72676;47.526;8.538;2023-09-08T11:29:32;14.93;;;9.17;;
73023;SDS011;72676;47.526;8.538;2023-09-08T11:31:59;15.23;;;9.80;;
73023;SDS011;72676;47.526;8.538;2023-09-08T11:34:26;17.80;;;9.90;;
73023;SDS011;72676;47.526;8.538;2023-09-08T11:36:53;15.23;;;7.63;;
73023;SDS011;72676;47.526;8.538;2023-09-08T11:39:22;12.13;;;8.30;;
73023;SDS011;72676;47.526;8.538;2023-09-08T11:41:51;12.70;;;9.00;;
73023;SDS011;72676;47.526;8.538;2023-09-08T11:44:18;11.60;;;9.10;;
73023;SDS011;72676;47.526;8.538;2023-09-08T11:46:45;17.63;;;11.00;;
73023;SDS011;72676;47.526;8.538;2023-09-08T11:49:14;13.50;;;9.07;;
73023;SDS011;72676;47.526;8.538;2023-09-08T11:51:45;9.63;;;7.87;;
73023;SDS011;72676;47.526;8.538;2023-09-08T11:54:12;11.00;;;8.10;;
73023;SDS011;72676;47.526;8.538;2023-09-08T11:56:38;13.83;;;6.83;;
73023;SDS011;72676;47.526;8.538;2023-09-08T11:59:06;10.33;;;6.60;;
73023;SDS011;72676;47.526;8.538;2023-09-08T12:01:34;12.93;;;6.43;;
73023;SDS011;72676;47.526;8.538;2023-09-08T12:04:01;11.00;;;6.97;;
73023;SDS011;72676;47.526;8.538;2023-09-08T12:06:28;11.87;;;6.80;;
73023;SDS011;72676;47.526;8.538;2023-09-08T12:08:55;8.20;;;6.60;;
73023;SDS011;72676;47.526;8.538;2023-09-08T12:11:32;17.40;;;7.70;;
73023;SDS011;72676;47.526;8.538;2023-09-08T12:14:01;12.80;;;7.83;;
73023;SDS011;72676;47.526;8.538;2023-09-08T12:16:28;14.60;;;8.70;;
73023;SDS011;72676;47.526;8.538;2023-09-08T12:18:55;9.70;;;7.87;;
73023;SDS011;72676;47.526;8.538;2023-09-08T12:21:21;13.43;;;8.47;;
73023;SDS011;72676;47.526;8.538;2023-09-08T12:23:48;12.43;;;8.00;;
73023;SDS011;72676;47.526;8.538;2023-09-08T12:26:16;13.87;;;7.73;;
73023;SDS011;72676;47.526;8.538;2023-09-08T12:28:42;14.10;;;7.93;;
73023;SDS011;72676;47.526;8.538;2023-09-08T12:31:10;14.57;;;9.00;;
73023;SDS011;72676;47.526;8.538;2023-09-08T12:33:36;14.97;;;8.40;;
73023;SDS011;72676;47.526;8.538;2023-09-08T12:36:16;17.17;;;9.80;;
73023;SDS011;72676;47.526;8.538;2023-09-08T12:38:47;12.00;;;8.83;;
73023;SDS011;72676;47.526;8.538;2023-09-08T12:41:15;12.20;;;8.60;;
73023;SDS011;72676;47.526;8.538;2023-09-08T12:43:42;14.20;;;8.87;;
73023;SDS011;72676;47.526;8.538;2023-09-08T12:46:08;13.00;;;8.57;;
73023;SDS011;72676;47.526;8.538;2023-09-08T12:48:35;10.40;;;8.47;;
73023;SDS011;72676;47.526;8.538;2023-09-08T12:51:02;12.03;;;7.50;;
73023;SDS011;72676;47.526;8.538;2023-09-08T12:53:35;10.57;;;7.77;;
73023;SDS011;72676;47.526;8.538;2023-09-08T12:56:01;17.33;;;7.97;;
73023;SDS011;72676;47.526;8.538;2023-09-08T12:58:28;11.60;;;8.60;;
73023;SDS011;72676;47.526;8.538;2023-09-08T13:00:54;12.57;;;8.60;;
73023;SDS011;72676;47.526;8.538;2023-09-08T13:03:21;17.53;;;9.20;;
73023;SDS011;72676;47.526;8.538;2023-09-08T13:05:48;9.93;;;7.80;;
73023;SDS011;72676;47.526;8.538;2023-09-08T13:08:14;14.20;;;7.90;;
73023;SDS011;72676;47.526;8.538;2023-09-08T13:10:41;13.47;;;8.40;;
73023;SDS011;72676;47.526;8.538;2023-09-08T13:13:08;16.83;;;7.73;;
73023;SDS011;72676;47.526;8.538;2023-09-08T13:15:34;11.50;;;8.53;;
73023;SDS011;72676;47.526;8.538;2023-09-08T13:18:01;11.30;;;8.10;;
73023;SDS011;72676;47.526;8.538;2023-09-08T13:20:27;11.40;;;8.17;;
73023;SDS011;72676;47.526;8.538;2023-09-08T13:22:54;9.17;;;7.17;;
73023;SDS011;72676;47.526;8.538;2023-09-08T13:25:21;10.80;;;7.20;;
73023;SDS011;72676;47.526;8.538;2023-09-08T13:27:47;11.80;;;8.47;;
73023;SDS011;72676;47.526;8.538;2023-09-08T13:30:14;11.03;;;7.80;;
73023;SDS011;72676;47.526;8.538;2023-09-08T13:32:43;10.30;;;7.53;;
73023;SDS011;72676;47.526;8.538;2023-09-08T13:35:10;14.63;;;7.90;;
73023;SDS011;72676;47.526;8.538;2023-09-08T13:37:37;13.60;;;7.80;;
73023;SDS011;72676;47.526;8.538;2023-09-08T13:40:05;9.40;;;6.93;;
73023;SDS011;72676;47.526;8.538;2023-09-08T13:42:32;9.57;;;7.20;;
73023;SDS011;72676;47.526;8.538;2023-09-08T13:44:58;12.30;;;7.10;;
73023;SDS011;72676;47.526;8.538;2023-09-08T13:47:26;13.33;;;7.10;;
73023;SDS011;72676;47.526;8.538;2023-09-08T13:49:53;10.07;;;7.20;;
73023;SDS011;72676;47.526;8.538;2023-09-08T13:52:23;9.07;;;6.57;;
73023;SDS011;72676;47.526;8.538;2023-09-08T13:54:55;9.67;;;6.70;;
73023;SDS011;72676;47.526;8.538;2023-09-08T13:57:25;9.00;;;6.93;;
73023;SDS011;72676;47.526;8.538;2023-09-08T13:59:54;13.03;;;6.87;;
73023;SDS011;72676;47.526;8.538;2023-09-08T14:02:23;15.67;;;7.23;;
73023;SDS011;72676;47.526;8.538;2023-09-08T14:04:53;12.23;;;6.83;;
73023;SDS011;72676;47.526;8.538;2023-09-08T14:07:21;10.60;;;7.13;;
73023;SDS011;72676;47.526;8.538;2023-09-08T14:09:53;11.27;;;6.50;;
73023;SDS011;72676;47.526;8.538;2023-09-08T14:12:31;8.17;;;6.87;;
73023;SDS011;72676;47.526;8.538;2023-09-08T14:15:01;9.03;;;6.53;;
73023;SDS011;72676;47.526;8.538;2023-09-08T14:17:28;8.57;;;6.63;;
73023;SDS011;72676;47.526;8.538;2023-09-08T14:19:54;8.13;;;6.40;;
73023;SDS011;72676;47.526;8.538;2023-09-08T14:22:21;9.47;;;6.83;;
73023;SDS011;72676;47.526;8.538;2023-09-08T14:24:47;12.07;;;6.77;;
73023;SDS011;72676;47.526;8.538;2023-09-08T14:27:14;14.03;;;7.03;;
73023;SDS011;72676;47.526;8.538;2023-09-08T14:29:40;11.70;;;6.37;;
73023;SDS011;72676;47.526;8.538;2023-09-08T14:32:07;8.53;;;6.60;;
73023;SDS011;72676;47.526;8.538;2023-09-08T14:34:33;10.47;;;7.63;;